createdAt,value
2017-05-28T00:00:38.150Z,23.13
2017-05-28T00:01:38.729Z,23.17
2017-05-28T00:02:39.313Z,23.20
2017-05-28T00:03:39.894Z,23.05
2017-05-28T00:04:40.475Z,22.98
2017-05-28T00:05:41.057Z,23.00
2017-05-28T00:06:41.639Z,23.06
2017-05-28T00:07:42.221Z,22.99
2017-05-28T00:08:42.801Z,23.00
2017-05-28T00:09:43.384Z,22.85
2017-05-28T00:10:43.964Z,22.62
2017-05-28T00:11:44.550Z,22.68
2017-05-28T00:12:45.128Z,22.62
2017-05-28T00:13:45.709Z,22.62
2017-05-28T00:14:46.290Z,22.25
2017-05-28T00:15:46.871Z,22.28
2017-05-28T00:16:47.453Z,22.22
2017-05-28T00:17:48.036Z,22.25
2017-05-28T00:18:48.617Z,22.41
2017-05-28T00:19:49.197Z,22.26
2017-05-28T00:20:49.778Z,22.08
2017-05-28T00:21:50.359Z,22.18
2017-05-28T00:22:50.944Z,22.20
2017-05-28T00:23:51.541Z,22.26
2017-05-28T00:24:52.123Z,22.45
2017-05-28T00:25:52.703Z,22.43
2017-05-28T00:26:53.286Z,22.11
2017-05-28T00:27:53.868Z,22.15
2017-05-28T00:28:54.450Z,22.28
2017-05-28T00:29:55.049Z,22.20
2017-05-28T00:30:55.629Z,22.15
2017-05-28T00:31:56.225Z,21.79
2017-05-28T00:32:56.806Z,21.77
2017-05-28T00:33:57.388Z,21.87
2017-05-28T00:34:57.970Z,22.07
2017-05-28T00:35:58.552Z,21.80
2017-05-28T00:36:59.133Z,21.98
2017-05-28T00:37:59.714Z,21.98
2017-05-28T00:39:00.297Z,22.14
2017-05-28T00:40:00.877Z,22.26
2017-05-28T00:41:01.458Z,22.44
2017-05-28T00:42:02.039Z,22.07
2017-05-28T00:43:02.636Z,21.98
2017-05-28T00:44:03.216Z,22.02
2017-05-28T00:45:03.798Z,21.99
2017-05-28T00:46:04.378Z,21.69
2017-05-28T00:47:04.959Z,21.95
2017-05-28T00:48:05.539Z,22.13
2017-05-28T00:49:06.120Z,22.15
2017-05-28T00:50:06.702Z,21.95
2017-05-28T00:51:07.283Z,21.57
2017-05-28T00:52:07.863Z,20.99
2017-05-28T00:53:08.443Z,21.24
2017-05-28T00:54:09.024Z,21.37
2017-05-28T00:55:09.606Z,21.37
2017-05-28T00:56:10.187Z,21.55
2017-05-28T00:57:10.769Z,21.76
2017-05-28T00:58:11.350Z,21.57
2017-05-28T00:59:11.947Z,21.55
2017-05-28T01:00:12.528Z,21.72
2017-05-28T01:01:13.112Z,21.54
2017-05-28T01:02:13.691Z,21.69
2017-05-28T01:03:14.288Z,21.62
2017-05-28T01:04:14.868Z,21.87
2017-05-28T01:05:15.449Z,21.82
2017-05-28T01:06:16.029Z,21.70
2017-05-28T01:07:16.614Z,21.42
2017-05-28T01:08:17.195Z,21.42
2017-05-28T01:09:17.777Z,21.51
2017-05-28T01:10:18.359Z,21.48
2017-05-28T01:11:18.942Z,21.72
2017-05-28T01:12:19.525Z,21.11
2017-05-28T01:13:20.106Z,20.69
2017-05-28T01:14:20.688Z,20.80
2017-05-28T01:15:21.272Z,20.82
2017-05-28T01:16:21.852Z,20.75
2017-05-28T01:17:22.434Z,20.78
2017-05-28T01:18:23.023Z,20.95
2017-05-28T01:19:23.599Z,21.11
2017-05-28T01:20:24.186Z,21.20
2017-05-28T01:21:24.762Z,21.17
2017-05-28T01:22:25.344Z,21.02
2017-05-28T01:23:25.928Z,21.14
2017-05-28T01:24:26.526Z,21.30
2017-05-28T01:25:27.109Z,21.21
2017-05-28T01:26:27.690Z,21.14
2017-05-28T01:27:28.273Z,21.27
2017-05-28T01:28:28.854Z,21.30
2017-05-28T01:29:29.435Z,21.43
2017-05-28T01:30:30.016Z,21.24
2017-05-28T01:31:30.599Z,21.11
2017-05-28T01:32:31.182Z,20.92
2017-05-28T01:33:31.763Z,20.84
2017-05-28T01:34:32.346Z,20.65
2017-05-28T01:35:32.929Z,20.78
2017-05-28T01:36:33.526Z,20.90
2017-05-28T01:37:34.107Z,21.09
2017-05-28T01:38:34.693Z,20.77
2017-05-28T01:39:35.272Z,20.25
2017-05-28T01:40:35.853Z,20.41
2017-05-28T01:41:36.435Z,20.78
2017-05-28T01:42:37.014Z,20.95
2017-05-28T01:43:37.596Z,20.87
2017-05-28T01:44:38.180Z,20.99
2017-05-28T01:45:38.761Z,20.92
2017-05-28T01:46:39.341Z,20.92
2017-05-28T01:47:39.940Z,20.70
2017-05-28T01:48:40.524Z,20.59
2017-05-28T01:49:41.104Z,20.65
2017-05-28T01:50:41.687Z,20.74
2017-05-28T01:51:42.269Z,20.50
2017-05-28T01:52:42.850Z,20.51
2017-05-28T01:53:43.434Z,20.43
2017-05-28T01:54:44.014Z,20.47
2017-05-28T01:55:44.597Z,20.43
2017-05-28T01:56:45.196Z,20.43
2017-05-28T01:57:45.779Z,20.50
2017-05-28T01:58:46.360Z,20.66
2017-05-28T01:59:46.940Z,20.82
2017-05-28T02:00:47.523Z,20.78
2017-05-28T02:01:48.105Z,21.02
2017-05-28T02:02:48.687Z,20.93
2017-05-28T02:03:49.268Z,20.85
2017-05-28T02:04:49.851Z,20.69
2017-05-28T02:05:50.434Z,20.50
2017-05-28T02:06:51.015Z,20.65
2017-05-28T02:07:51.597Z,20.50
2017-05-28T02:08:52.197Z,20.40
2017-05-28T02:09:52.780Z,20.59
2017-05-28T02:10:53.361Z,20.66
2017-05-28T02:11:53.944Z,20.80
2017-05-28T02:12:54.543Z,20.63
2017-05-28T02:13:55.125Z,20.62
2017-05-28T02:14:55.707Z,20.74
2017-05-28T02:15:56.288Z,20.93
2017-05-28T02:16:56.871Z,20.77
2017-05-28T02:17:57.451Z,20.81
2017-05-28T02:18:58.033Z,20.99
2017-05-28T02:19:58.614Z,20.78
2017-05-28T02:20:59.197Z,20.77
2017-05-28T02:21:59.778Z,20.81
2017-05-28T02:23:00.359Z,20.81
2017-05-28T02:24:00.940Z,20.77
2017-05-28T02:25:01.524Z,20.93
2017-05-28T02:26:02.109Z,20.96
2017-05-28T02:27:02.703Z,20.78
2017-05-28T02:28:03.283Z,20.80
2017-05-28T02:29:03.867Z,20.69
2017-05-28T02:30:04.448Z,20.69
2017-05-28T02:31:05.031Z,20.77
2017-05-28T02:32:05.615Z,20.28
2017-05-28T02:33:06.194Z,20.10
2017-05-28T02:34:06.777Z,19.94
2017-05-28T02:35:07.357Z,20.06
2017-05-28T02:36:07.938Z,20.04
2017-05-28T02:37:08.523Z,20.41
2017-05-28T02:38:09.105Z,20.40
2017-05-28T02:39:09.685Z,20.70
2017-05-28T02:40:10.267Z,20.65
2017-05-28T02:41:10.848Z,20.75
2017-05-28T02:42:11.431Z,20.62
2017-05-28T02:43:12.012Z,20.39
2017-05-28T02:44:12.594Z,20.39
2017-05-28T02:45:13.178Z,20.59
2017-05-28T02:46:13.759Z,20.50
2017-05-28T02:47:14.340Z,20.40
2017-05-28T02:48:14.924Z,20.24
2017-05-28T02:49:15.506Z,20.07
2017-05-28T02:50:16.088Z,19.85
2017-05-28T02:51:16.735Z,19.89
2017-05-28T02:52:17.252Z,19.96
2017-05-28T02:53:17.834Z,19.69
2017-05-28T02:54:18.413Z,19.59
2017-05-28T02:55:18.995Z,19.56
2017-05-28T02:56:19.577Z,19.66
2017-05-28T02:57:20.177Z,19.71
2017-05-28T02:58:20.758Z,19.86
2017-05-28T02:59:21.339Z,20.31
2017-05-28T03:00:21.923Z,20.26
2017-05-28T03:01:22.504Z,20.21
2017-05-28T03:02:23.085Z,20.25
2017-05-28T03:03:23.665Z,20.06
2017-05-28T03:04:24.247Z,20.37
2017-05-28T03:05:24.832Z,20.62
2017-05-28T03:06:25.413Z,20.75
2017-05-28T03:07:26.013Z,20.74
2017-05-28T03:08:26.595Z,20.40
2017-05-28T03:09:27.178Z,20.75
2017-05-28T03:10:27.758Z,20.59
2017-05-28T03:11:28.338Z,20.29
2017-05-28T03:12:28.921Z,20.41
2017-05-28T03:13:29.501Z,20.24
2017-05-28T03:14:30.084Z,20.14
2017-05-28T03:15:30.665Z,20.40
2017-05-28T03:16:31.245Z,20.43
2017-05-28T03:17:31.828Z,20.44
2017-05-28T03:18:32.409Z,20.44
2017-05-28T03:19:32.990Z,20.41
2017-05-28T03:20:33.581Z,20.37
2017-05-28T03:21:34.155Z,20.24
2017-05-28T03:22:34.736Z,20.03
2017-05-28T03:23:35.321Z,20.11
2017-05-28T03:24:35.903Z,20.48
2017-05-28T03:25:36.495Z,20.44
2017-05-28T03:26:37.069Z,20.43
2017-05-28T03:27:37.651Z,20.21
2017-05-28T03:28:38.232Z,19.91
2017-05-28T03:29:38.823Z,19.99
2017-05-28T03:30:39.398Z,20.09
2017-05-28T03:31:39.979Z,20.07
2017-05-28T03:32:40.562Z,20.14
2017-05-28T03:33:41.145Z,20.14
2017-05-28T03:34:41.729Z,20.40
2017-05-28T03:35:42.327Z,20.34
2017-05-28T03:36:42.909Z,20.31
2017-05-28T03:37:43.492Z,20.29
2017-05-28T03:38:44.076Z,20.34
2017-05-28T03:39:44.657Z,20.41
2017-05-28T03:40:45.240Z,20.48
2017-05-28T03:41:45.824Z,20.48
2017-05-28T03:42:46.405Z,20.50
2017-05-28T03:43:46.987Z,20.41
2017-05-28T03:44:47.571Z,20.44
2017-05-28T03:45:48.171Z,20.58
2017-05-28T03:46:48.753Z,20.47
2017-05-28T03:47:49.336Z,20.56
2017-05-28T03:48:49.919Z,20.55
2017-05-28T03:49:50.505Z,20.62
2017-05-28T03:50:51.085Z,20.55
2017-05-28T03:51:51.685Z,20.62
2017-05-28T03:52:52.268Z,20.62
2017-05-28T03:53:52.849Z,20.62
2017-05-28T03:54:53.432Z,20.66
2017-05-28T03:55:54.016Z,20.60
2017-05-28T03:56:54.598Z,20.62
2017-05-28T03:57:55.180Z,20.60
2017-05-28T03:58:55.764Z,20.59
2017-05-28T03:59:56.346Z,20.67
2017-05-28T04:00:56.929Z,20.58
2017-05-28T04:01:57.512Z,20.60
2017-05-28T04:02:58.094Z,20.55
2017-05-28T04:03:58.680Z,20.51
2017-05-28T04:04:59.265Z,20.52
2017-05-28T04:05:59.843Z,20.50
2017-05-28T04:07:00.426Z,20.47
2017-05-28T04:08:01.010Z,20.60
2017-05-28T04:09:01.591Z,20.48
2017-05-28T04:10:02.180Z,20.40
2017-05-28T04:11:02.757Z,20.44
2017-05-28T04:12:03.340Z,20.41
2017-05-28T04:13:03.923Z,20.40
2017-05-28T04:14:04.506Z,20.58
2017-05-28T04:15:05.087Z,20.44
2017-05-28T04:16:05.670Z,20.40
2017-05-28T04:17:06.253Z,20.34
2017-05-28T04:18:06.836Z,20.39
2017-05-28T04:19:07.416Z,20.21
2017-05-28T04:20:07.999Z,20.19
2017-05-28T04:21:08.582Z,20.09
2017-05-28T04:22:09.163Z,20.10
2017-05-28T04:23:09.748Z,20.11
2017-05-28T04:24:10.328Z,20.14
2017-05-28T04:25:10.910Z,20.18
2017-05-28T04:26:11.494Z,20.16
2017-05-28T04:27:12.075Z,20.07
2017-05-28T04:28:12.658Z,20.26
2017-05-28T04:29:13.247Z,20.32
2017-05-28T04:30:13.823Z,20.21
2017-05-28T04:31:14.405Z,20.39
2017-05-28T04:32:14.989Z,20.34
2017-05-28T04:33:15.589Z,20.37
2017-05-28T04:34:16.172Z,20.29
2017-05-28T04:35:16.753Z,20.36
2017-05-28T04:36:17.337Z,20.28
2017-05-28T04:37:17.919Z,20.26
2017-05-28T04:38:18.521Z,20.40
2017-05-28T04:39:19.102Z,20.22
2017-05-28T04:40:19.686Z,20.26
2017-05-28T04:41:20.269Z,20.25
2017-05-28T04:42:20.851Z,20.31
2017-05-28T04:43:21.435Z,20.06
2017-05-28T04:44:22.034Z,20.07
2017-05-28T04:45:22.631Z,20.06
2017-05-28T04:46:23.213Z,20.11
2017-05-28T04:47:23.796Z,19.96
2017-05-28T04:48:24.380Z,20.03
2017-05-28T04:49:24.961Z,20.03
2017-05-28T04:50:25.544Z,20.13
2017-05-28T04:51:26.127Z,20.07
2017-05-28T04:52:26.708Z,20.19
2017-05-28T04:53:27.291Z,20.24
2017-05-28T04:54:27.876Z,20.47
2017-05-28T04:55:28.457Z,20.37
2017-05-28T04:56:29.040Z,20.44
2017-05-28T04:57:29.623Z,20.32
2017-05-28T04:58:30.205Z,20.47
2017-05-28T04:59:30.806Z,19.99
2017-05-28T05:00:31.389Z,20.18
2017-05-28T05:01:31.971Z,20.29
2017-05-28T05:02:32.552Z,20.26
2017-05-28T05:03:33.135Z,20.32
2017-05-28T05:04:33.718Z,20.24
2017-05-28T05:05:34.299Z,20.18
2017-05-28T05:06:34.882Z,20.26
2017-05-28T05:07:35.466Z,20.51
2017-05-28T05:08:36.064Z,20.74
2017-05-28T05:09:36.646Z,20.34
2017-05-28T05:10:37.229Z,20.26
2017-05-28T05:11:37.812Z,20.63
2017-05-28T05:12:38.394Z,20.69
2017-05-28T05:13:38.977Z,20.66
2017-05-28T05:14:39.561Z,20.56
2017-05-28T05:15:40.159Z,20.65
2017-05-28T05:16:40.739Z,20.75
2017-05-28T05:17:41.323Z,21.05
2017-05-28T05:18:41.922Z,20.99
2017-05-28T05:19:42.505Z,21.14
2017-05-28T05:20:43.089Z,20.92
2017-05-28T05:21:43.670Z,20.78
2017-05-28T05:22:44.253Z,20.56
2017-05-28T05:23:44.834Z,20.78
2017-05-28T05:24:45.433Z,20.62
2017-05-28T05:25:46.017Z,20.06
2017-05-28T05:26:46.598Z,19.85
2017-05-28T05:27:47.182Z,19.74
2017-05-28T05:28:47.764Z,19.85
2017-05-28T05:29:48.364Z,20.11
2017-05-28T05:30:48.946Z,20.29
2017-05-28T05:31:49.535Z,20.40
2017-05-28T05:32:50.128Z,20.50
2017-05-28T05:33:50.714Z,20.14
2017-05-28T05:34:51.292Z,19.82
2017-05-28T05:35:51.876Z,19.99
2017-05-28T05:36:52.476Z,20.10
2017-05-28T05:37:53.063Z,20.28
2017-05-28T05:38:53.640Z,20.26
2017-05-28T05:39:54.224Z,20.47
2017-05-28T05:40:54.806Z,20.59
2017-05-28T05:41:55.407Z,20.40
2017-05-28T05:42:55.989Z,20.09
2017-05-28T05:43:56.573Z,20.22
2017-05-28T05:44:57.155Z,20.25
2017-05-28T05:45:57.755Z,20.19
2017-05-28T05:46:58.339Z,20.19
2017-05-28T05:47:58.925Z,20.26
2017-05-28T05:48:59.509Z,20.39
2017-05-28T05:50:00.091Z,20.36
2017-05-28T05:51:00.673Z,20.48
2017-05-28T05:52:01.259Z,20.34
2017-05-28T05:53:01.844Z,20.00
2017-05-28T05:54:02.426Z,19.70
2017-05-28T05:55:03.010Z,19.69
2017-05-28T05:56:03.611Z,19.95
2017-05-28T05:57:04.196Z,20.00
2017-05-28T05:58:04.799Z,19.73
2017-05-28T05:59:05.384Z,19.58
2017-05-28T06:00:05.967Z,19.33
2017-05-28T06:01:06.553Z,19.26
2017-05-28T06:02:07.148Z,19.08
2017-05-28T06:03:07.730Z,19.19
2017-05-28T06:04:08.319Z,19.54
2017-05-28T06:05:08.902Z,19.56
2017-05-28T06:06:09.486Z,19.59
2017-05-28T06:07:10.071Z,19.79
2017-05-28T06:08:10.655Z,19.74
2017-05-28T06:09:11.241Z,19.85
2017-05-28T06:10:11.826Z,19.85
2017-05-28T06:11:12.411Z,19.96
2017-05-28T06:12:13.013Z,19.96
2017-05-28T06:13:13.597Z,20.06
2017-05-28T06:14:14.183Z,20.10
2017-05-28T06:15:14.767Z,20.26
2017-05-28T06:16:15.352Z,20.43
2017-05-28T06:17:15.938Z,20.51
2017-05-28T06:18:16.538Z,20.28
2017-05-28T06:19:17.122Z,19.77
2017-05-28T06:20:17.706Z,19.69
2017-05-28T06:21:18.288Z,19.56
2017-05-28T06:22:18.873Z,19.64
2017-05-28T06:23:19.458Z,19.96
2017-05-28T06:24:20.041Z,19.96
2017-05-28T06:25:20.626Z,20.14
2017-05-28T06:26:21.208Z,20.24
2017-05-28T06:27:21.792Z,20.07
2017-05-28T06:28:22.378Z,20.21
2017-05-28T06:29:22.960Z,20.31
2017-05-28T06:30:23.543Z,20.29
2017-05-28T06:31:24.127Z,20.13
2017-05-28T06:32:24.710Z,20.00
2017-05-28T06:33:25.295Z,20.00
2017-05-28T06:34:25.877Z,19.89
2017-05-28T06:35:26.463Z,19.77
2017-05-28T06:36:27.046Z,19.76
2017-05-28T06:37:27.647Z,19.58
2017-05-28T06:38:28.231Z,19.62
2017-05-28T06:39:28.820Z,19.63
2017-05-28T06:40:29.399Z,19.74
2017-05-28T06:41:29.984Z,19.45
2017-05-28T06:42:30.569Z,19.34
2017-05-28T06:43:31.155Z,19.34
2017-05-28T06:44:31.739Z,19.41
2017-05-28T06:45:32.325Z,19.76
2017-05-28T06:46:32.928Z,19.92
2017-05-28T06:47:33.511Z,20.18
2017-05-28T06:48:34.098Z,20.25
2017-05-28T06:49:34.682Z,20.29
2017-05-28T06:50:35.267Z,20.40
2017-05-28T06:51:35.853Z,20.09
2017-05-28T06:52:36.437Z,20.21
2017-05-28T06:53:37.019Z,19.44
2017-05-28T06:54:37.604Z,19.15
2017-05-28T06:55:38.190Z,19.29
2017-05-28T06:56:38.776Z,19.26
2017-05-28T06:57:39.364Z,19.62
2017-05-28T06:58:39.963Z,19.81
2017-05-28T06:59:40.548Z,20.06
2017-05-28T07:00:41.134Z,20.29
2017-05-28T07:01:41.717Z,20.40
2017-05-28T07:02:42.301Z,20.24
2017-05-28T07:03:42.888Z,20.04
2017-05-28T07:04:43.472Z,19.55
2017-05-28T07:05:44.056Z,19.48
2017-05-28T07:06:44.639Z,19.84
2017-05-28T07:07:45.226Z,19.94
2017-05-28T07:08:45.810Z,19.86
2017-05-28T07:09:46.395Z,20.04
2017-05-28T07:10:46.981Z,19.84
2017-05-28T07:11:47.565Z,19.96
2017-05-28T07:12:48.150Z,20.00
2017-05-28T07:13:48.734Z,20.03
2017-05-28T07:14:49.321Z,19.96
2017-05-28T07:15:49.905Z,19.95
2017-05-28T07:16:50.489Z,20.19
2017-05-28T07:17:51.076Z,20.52
2017-05-28T07:18:51.659Z,20.62
2017-05-28T07:19:52.243Z,21.03
2017-05-28T07:20:52.827Z,21.12
2017-05-28T07:21:53.413Z,21.22
2017-05-28T07:22:53.998Z,21.15
2017-05-28T07:23:54.580Z,21.37
2017-05-28T07:24:55.167Z,21.40
2017-05-28T07:25:55.750Z,21.25
2017-05-28T07:26:56.334Z,21.50
2017-05-28T07:27:56.920Z,21.55
2017-05-28T07:28:57.505Z,21.67
2017-05-28T07:29:58.089Z,21.60
2017-05-28T07:30:58.673Z,21.52
2017-05-28T07:31:59.259Z,21.70
2017-05-28T07:32:59.843Z,21.62
2017-05-28T07:34:00.428Z,21.69
2017-05-28T07:35:01.015Z,21.85
2017-05-28T07:36:01.601Z,21.79
2017-05-28T07:37:02.186Z,22.00
2017-05-28T07:38:02.773Z,22.07
2017-05-28T07:39:03.360Z,22.04
2017-05-28T07:40:03.963Z,21.83
2017-05-28T07:41:04.549Z,22.02
2017-05-28T07:42:05.133Z,22.22
2017-05-28T07:43:05.718Z,22.50
2017-05-28T07:44:06.305Z,22.47
2017-05-28T07:45:06.890Z,22.20
2017-05-28T07:46:07.474Z,22.02
2017-05-28T07:47:08.058Z,22.15
2017-05-28T07:48:08.645Z,22.14
2017-05-28T07:49:09.230Z,22.15
2017-05-28T07:50:09.816Z,22.23
2017-05-28T07:51:10.401Z,22.11
2017-05-28T07:52:10.987Z,22.13
2017-05-28T07:53:11.571Z,22.32
2017-05-28T07:54:12.157Z,22.47
2017-05-28T07:55:12.743Z,22.59
2017-05-28T07:56:13.328Z,22.14
2017-05-28T07:57:13.913Z,22.20
2017-05-28T07:58:14.501Z,22.22
2017-05-28T07:59:15.087Z,22.68
2017-05-28T08:00:15.673Z,22.28
2017-05-28T08:01:16.262Z,22.57
2017-05-28T08:02:16.849Z,22.59
2017-05-28T08:03:17.429Z,22.60
2017-05-28T08:04:18.014Z,22.33
2017-05-28T08:05:18.599Z,22.32
2017-05-28T08:06:19.185Z,22.00
2017-05-28T08:07:19.769Z,22.02
2017-05-28T08:08:20.370Z,21.93
2017-05-28T08:09:20.954Z,21.67
2017-05-28T08:10:21.541Z,21.83
2017-05-28T08:11:22.128Z,21.89
2017-05-28T08:12:22.730Z,21.87
2017-05-28T08:13:23.330Z,21.76
2017-05-28T08:14:23.917Z,21.85
2017-05-28T08:15:24.502Z,21.89
2017-05-28T08:16:25.087Z,22.20
2017-05-28T08:17:25.673Z,22.48
2017-05-28T08:18:26.257Z,22.11
2017-05-28T08:19:26.840Z,22.38
2017-05-28T08:20:27.428Z,22.43
2017-05-28T08:21:28.012Z,22.38
2017-05-28T08:22:28.597Z,22.43
2017-05-28T08:23:29.184Z,22.13
2017-05-28T08:24:29.770Z,22.11
2017-05-28T08:25:30.354Z,22.15
2017-05-28T08:26:30.943Z,22.04
2017-05-28T08:27:31.526Z,22.10
2017-05-28T08:28:32.111Z,22.26
2017-05-28T08:29:32.696Z,22.60
2017-05-28T08:30:33.281Z,22.51
2017-05-28T08:31:33.866Z,22.59
2017-05-28T08:32:34.451Z,22.59
2017-05-28T08:33:35.036Z,22.81
2017-05-28T08:34:35.620Z,22.81
2017-05-28T08:35:36.222Z,22.48
2017-05-28T08:36:36.808Z,22.80
2017-05-28T08:37:37.391Z,23.25
2017-05-28T08:38:37.977Z,23.20
2017-05-28T08:39:38.563Z,22.91
2017-05-28T08:40:39.146Z,22.98
2017-05-28T08:41:39.731Z,22.96
2017-05-28T08:42:40.321Z,23.17
2017-05-28T08:43:40.902Z,23.21
2017-05-28T08:44:41.487Z,23.12
2017-05-28T08:45:42.075Z,23.39
2017-05-28T08:46:42.662Z,23.17
2017-05-28T08:47:43.246Z,23.18
2017-05-28T08:48:43.832Z,23.20
2017-05-28T08:49:44.420Z,23.24
2017-05-28T08:50:45.006Z,23.27
2017-05-28T08:51:45.594Z,23.36
2017-05-28T08:52:46.179Z,23.78
2017-05-28T08:53:46.768Z,24.17
2017-05-28T08:54:47.354Z,24.23
2017-05-28T08:55:47.940Z,24.28
2017-05-28T08:56:48.531Z,24.48
2017-05-28T08:57:49.115Z,24.17
2017-05-28T08:58:49.701Z,24.29
2017-05-28T08:59:50.289Z,23.99
2017-05-28T09:00:50.877Z,23.88
2017-05-28T09:01:51.466Z,23.69
2017-05-28T09:02:52.053Z,23.73
2017-05-28T09:03:52.639Z,23.71
2017-05-28T09:04:53.226Z,23.77
2017-05-28T09:05:53.829Z,24.18
2017-05-28T09:06:54.416Z,24.23
2017-05-28T09:07:55.003Z,24.66
2017-05-28T09:08:55.590Z,25.06
2017-05-28T09:09:56.181Z,25.14
2017-05-28T09:10:56.766Z,24.88
2017-05-28T09:11:57.352Z,24.33
2017-05-28T09:12:57.939Z,23.84
2017-05-28T09:13:58.526Z,23.88
2017-05-28T09:14:59.114Z,24.13
2017-05-28T09:15:59.701Z,24.24
2017-05-28T09:17:00.303Z,24.40
2017-05-28T09:18:00.889Z,23.95
2017-05-28T09:19:01.477Z,23.84
2017-05-28T09:20:02.066Z,23.69
2017-05-28T09:21:02.652Z,24.01
2017-05-28T09:22:03.238Z,24.29
2017-05-28T09:23:03.841Z,24.63
2017-05-28T09:24:04.427Z,24.74
2017-05-28T09:25:05.015Z,24.69
2017-05-28T09:26:05.600Z,24.51
2017-05-28T09:27:06.188Z,24.24
2017-05-28T09:28:06.789Z,23.87
2017-05-28T09:29:07.374Z,23.58
2017-05-28T09:30:07.961Z,23.68
2017-05-28T09:31:08.547Z,23.74
2017-05-28T09:32:09.131Z,23.78
2017-05-28T09:33:09.718Z,23.48
2017-05-28T09:34:10.303Z,23.55
2017-05-28T09:35:10.889Z,23.61
2017-05-28T09:36:11.476Z,23.54
2017-05-28T09:37:12.064Z,23.37
2017-05-28T09:38:12.648Z,23.34
2017-05-28T09:39:13.232Z,23.34
2017-05-28T09:40:13.818Z,23.36
2017-05-28T09:41:14.421Z,23.28
2017-05-28T09:42:15.007Z,23.28
2017-05-28T09:43:15.594Z,22.87
2017-05-28T09:44:16.177Z,22.96
2017-05-28T09:45:16.768Z,22.87
2017-05-28T09:46:17.350Z,22.70
2017-05-28T09:47:17.936Z,22.75
2017-05-28T09:48:18.538Z,22.69
2017-05-28T09:49:19.125Z,22.62
2017-05-28T09:50:19.712Z,22.41
2017-05-28T09:51:20.297Z,22.10
2017-05-28T09:52:20.883Z,21.70
2017-05-28T09:53:21.470Z,21.57
2017-05-28T09:54:22.054Z,21.55
2017-05-28T09:55:22.641Z,21.45
2017-05-28T09:56:23.227Z,21.37
2017-05-28T09:57:23.814Z,21.80
2017-05-28T09:58:24.400Z,21.54
2017-05-28T09:59:25.002Z,22.07
2017-05-28T10:00:25.587Z,21.93
2017-05-28T10:01:26.173Z,21.73
2017-05-28T10:02:26.759Z,21.79
2017-05-28T10:03:27.343Z,21.80
2017-05-28T10:04:27.928Z,21.93
2017-05-28T10:05:28.515Z,22.08
2017-05-28T10:06:29.099Z,22.15
2017-05-28T10:07:29.692Z,22.18
2017-05-28T10:08:30.272Z,22.17
2017-05-28T10:09:30.859Z,22.51
2017-05-28T10:10:31.444Z,22.48
2017-05-28T10:11:32.030Z,22.94
2017-05-28T10:12:32.617Z,22.96
2017-05-28T10:13:33.205Z,23.37
2017-05-28T10:14:33.790Z,23.58
2017-05-28T10:15:34.394Z,23.51
2017-05-28T10:16:34.980Z,23.27
2017-05-28T10:17:35.566Z,23.47
2017-05-28T10:18:36.154Z,23.46
2017-05-28T10:19:36.758Z,24.18
2017-05-28T10:20:37.343Z,23.99
2017-05-28T10:21:37.928Z,24.13
2017-05-28T10:22:38.514Z,24.36
2017-05-28T10:23:39.102Z,24.51
2017-05-28T10:24:39.687Z,24.29
2017-05-28T10:25:40.273Z,23.95
2017-05-28T10:26:40.874Z,23.68
2017-05-28T10:27:41.460Z,23.81
2017-05-28T10:28:42.049Z,24.28
2017-05-28T10:29:42.634Z,24.68
2017-05-28T10:30:43.237Z,24.50
2017-05-28T10:31:43.842Z,24.76
2017-05-28T10:32:44.428Z,24.91
2017-05-28T10:33:45.015Z,24.78
2017-05-28T10:34:45.602Z,24.88
2017-05-28T10:35:46.190Z,25.06
2017-05-28T10:36:46.776Z,24.96
2017-05-28T10:37:47.363Z,24.86
2017-05-28T10:38:47.949Z,24.96
2017-05-28T10:39:48.538Z,25.26
2017-05-28T10:40:49.123Z,25.11
2017-05-28T10:41:49.710Z,24.36
2017-05-28T10:42:50.298Z,24.28
2017-05-28T10:43:50.886Z,24.30
2017-05-28T10:44:51.471Z,24.16
2017-05-28T10:45:52.053Z,24.32
2017-05-28T10:46:52.641Z,24.57
2017-05-28T10:47:53.226Z,24.77
2017-05-28T10:48:53.814Z,24.54
2017-05-28T10:49:54.416Z,24.74
2017-05-28T10:50:55.019Z,24.70
2017-05-28T10:51:55.605Z,24.74
2017-05-28T10:52:56.193Z,24.86
2017-05-28T10:53:56.777Z,25.10
2017-05-28T10:54:57.366Z,25.38
2017-05-28T10:55:57.953Z,24.98
2017-05-28T10:56:58.543Z,24.43
2017-05-28T10:57:59.130Z,24.51
2017-05-28T10:58:59.717Z,24.99
2017-05-28T11:00:00.305Z,24.96
2017-05-28T11:01:00.893Z,24.48
2017-05-28T11:02:01.478Z,25.06
2017-05-28T11:03:02.065Z,25.43
2017-05-28T11:04:02.653Z,25.48
2017-05-28T11:05:03.237Z,25.69
2017-05-28T11:06:03.825Z,25.84
2017-05-28T11:07:04.412Z,25.99
2017-05-28T11:08:05.002Z,25.99
2017-05-28T11:09:05.605Z,26.09
2017-05-28T11:10:06.208Z,26.21
2017-05-28T11:11:06.797Z,26.19
2017-05-28T11:12:07.383Z,26.07
2017-05-28T11:13:07.969Z,26.09
2017-05-28T11:14:08.557Z,26.03
2017-05-28T11:15:09.143Z,26.25
2017-05-28T11:16:09.731Z,26.05
2017-05-28T11:17:10.316Z,25.66
2017-05-28T11:18:10.906Z,25.65
2017-05-28T11:19:11.492Z,25.80
2017-05-28T11:20:12.081Z,26.05
2017-05-28T11:21:12.668Z,26.07
2017-05-28T11:22:13.257Z,26.26
2017-05-28T11:23:13.845Z,26.10
2017-05-28T11:24:14.432Z,25.31
2017-05-28T11:25:15.024Z,25.28
2017-05-28T11:26:15.610Z,25.83
2017-05-28T11:27:16.197Z,26.03
2017-05-28T11:28:16.800Z,26.26
2017-05-28T11:29:17.387Z,26.71
2017-05-28T11:30:17.974Z,26.77
2017-05-28T11:31:18.564Z,26.25
2017-05-28T11:32:19.152Z,26.36
2017-05-28T11:33:19.758Z,26.52
2017-05-28T11:34:20.343Z,25.83
2017-05-28T11:35:20.949Z,25.83
2017-05-28T11:36:21.534Z,26.25
2017-05-28T11:37:22.124Z,26.38
2017-05-28T11:38:22.711Z,26.65
2017-05-28T11:39:23.299Z,25.84
2017-05-28T11:40:23.887Z,26.47
2017-05-28T11:41:24.475Z,26.85
2017-05-28T11:42:25.062Z,27.00
2017-05-28T11:43:25.652Z,27.12
2017-05-28T11:44:26.245Z,26.84
2017-05-28T11:45:26.829Z,26.90
2017-05-28T11:46:27.417Z,27.33
2017-05-28T11:47:28.054Z,27.40
2017-05-28T11:48:28.595Z,27.51
2017-05-28T11:49:29.185Z,27.35
2017-05-28T11:50:29.773Z,27.11
2017-05-28T11:51:30.366Z,27.47
2017-05-28T11:52:30.952Z,27.25
2017-05-28T11:53:31.539Z,27.32
2017-05-28T11:54:32.127Z,27.48
2017-05-28T11:55:32.715Z,27.37
2017-05-28T11:56:33.305Z,26.26
2017-05-28T11:57:33.893Z,26.43
2017-05-28T11:58:34.481Z,26.31
2017-05-28T11:59:35.068Z,26.53
2017-05-28T12:00:35.658Z,26.89
2017-05-28T12:01:36.245Z,26.81
2017-05-28T12:02:36.834Z,26.99
2017-05-28T12:03:37.423Z,27.37
2017-05-28T12:04:38.029Z,27.45
2017-05-28T12:05:38.618Z,27.68
2017-05-28T12:06:39.206Z,26.83
2017-05-28T12:07:39.794Z,26.41
2017-05-28T12:08:40.383Z,26.44
2017-05-28T12:09:40.972Z,26.59
2017-05-28T12:10:41.579Z,26.83
2017-05-28T12:11:42.166Z,26.48
2017-05-28T12:12:42.755Z,26.26
2017-05-28T12:13:43.361Z,26.41
2017-05-28T12:14:43.950Z,26.33
2017-05-28T12:15:44.539Z,26.55
2017-05-28T12:16:45.128Z,26.48
2017-05-28T12:17:45.715Z,26.36
2017-05-28T12:18:46.304Z,27.02
2017-05-28T12:19:46.893Z,27.44
2017-05-28T12:20:47.482Z,27.73
2017-05-28T12:21:48.070Z,27.68
2017-05-28T12:22:48.658Z,27.25
2017-05-28T12:23:49.247Z,26.45
2017-05-28T12:24:49.838Z,26.84
2017-05-28T12:25:50.424Z,26.90
2017-05-28T12:26:51.010Z,26.84
2017-05-28T12:27:51.601Z,26.80
2017-05-28T12:28:52.188Z,26.88
2017-05-28T12:29:52.776Z,26.97
2017-05-28T12:30:53.365Z,26.34
2017-05-28T12:31:53.956Z,26.25
2017-05-28T12:32:54.543Z,26.84
2017-05-28T12:33:55.133Z,27.00
2017-05-28T12:34:55.725Z,27.37
2017-05-28T12:35:56.311Z,27.80
2017-05-28T12:36:56.898Z,27.78
2017-05-28T12:37:57.486Z,27.51
2017-05-28T12:38:58.076Z,27.48
2017-05-28T12:39:58.664Z,26.88
2017-05-28T12:40:59.253Z,26.93
2017-05-28T12:41:59.840Z,27.00
2017-05-28T12:43:00.429Z,27.25
2017-05-28T12:44:01.017Z,27.05
2017-05-28T12:45:01.606Z,26.81
2017-05-28T12:46:02.194Z,26.96
2017-05-28T12:47:02.785Z,27.12
2017-05-28T12:48:03.377Z,27.54
2017-05-28T12:49:03.962Z,27.60
2017-05-28T12:50:04.551Z,27.82
2017-05-28T12:51:05.141Z,27.55
2017-05-28T12:52:05.729Z,27.07
2017-05-28T12:53:06.318Z,27.11
2017-05-28T12:54:06.908Z,27.26
2017-05-28T12:55:07.498Z,27.35
2017-05-28T12:56:08.087Z,27.47
2017-05-28T12:57:08.675Z,27.33
2017-05-28T12:58:09.265Z,27.52
2017-05-28T12:59:09.855Z,26.77
2017-05-28T13:00:10.443Z,27.00